La Sortija, Argentina
Current Conditions -  °F | °C
As of 4:00 PM on Friday 28 Nov 2014 (Local Time) from SAZM Reporting Station
Clear Clear  
Wind Chill: 82°   Ceiling: Unl
Heat Index: 82°   Visibility: 6mi
Dew Point: 55°   Wind: 20mph
Humidity: 39%   Direction: 320°NW
Pressure: 29.85"   Gusts: NA
Location:  38.13°S, 60.71°W
Report Text: SAZM 281900Z 32017KT CAVOK 28/13 Q1011
Loading
Personal Weather Stations






























Interactive Weather Map New forecast layout! Learn more

10-Day Weather Forecast

Advertisements
Track Severe Weather on mobile